createdAt,value
2019-02-14T00:00:05.114Z,47.20
2019-02-14T00:01:05.090Z,46.80
2019-02-14T00:02:05.080Z,47.30
2019-02-14T00:03:05.069Z,49.90
2019-02-14T00:04:05.059Z,48.40
2019-02-14T00:05:05.044Z,53.10
2019-02-14T00:06:05.055Z,50.70
2019-02-14T00:07:05.021Z,51.50
2019-02-14T00:08:05.016Z,48.00
2019-02-14T00:09:04.998Z,46.90
2019-02-14T00:10:04.992Z,50.40
2019-02-14T00:11:04.986Z,49.50
2019-02-14T00:12:04.966Z,50.40
2019-02-14T00:13:04.953Z,50.80
2019-02-14T00:14:04.946Z,48.50
2019-02-14T00:15:04.931Z,49.20
2019-02-14T00:16:04.924Z,46.30
2019-02-14T00:17:04.909Z,47.90
2019-02-14T00:18:04.898Z,47.10
2019-02-14T00:19:04.886Z,47.10
2019-02-14T00:20:04.876Z,50.00
2019-02-14T00:21:04.868Z,48.40
2019-02-14T00:22:04.852Z,47.50
2019-02-14T00:23:04.890Z,44.40
2019-02-14T00:24:04.831Z,46.90
2019-02-14T00:25:04.819Z,45.50
2019-02-14T00:26:04.811Z,48.70
2019-02-14T00:27:04.796Z,47.50
2019-02-14T00:28:04.819Z,50.80
2019-02-14T00:29:04.776Z,50.60
2019-02-14T00:30:04.767Z,49.60
2019-02-14T00:31:04.754Z,49.50
2019-02-14T00:32:04.742Z,46.90
2019-02-14T00:33:04.730Z,46.10
2019-02-14T00:34:04.720Z,48.40
2019-02-14T00:35:04.708Z,48.10
2019-02-14T00:36:04.700Z,44.70
2019-02-14T00:37:04.689Z,44.00
2019-02-14T00:38:04.677Z,46.20
2019-02-14T00:39:04.684Z,48.80
2019-02-14T00:40:04.650Z,45.40
2019-02-14T00:41:04.644Z,47.70
2019-02-14T00:42:04.631Z,44.50
2019-02-14T00:43:04.619Z,47.70
2019-02-14T00:44:04.605Z,47.50
2019-02-14T00:45:04.595Z,48.80
2019-02-14T00:46:04.584Z,44.80
2019-02-14T00:47:04.573Z,46.80
2019-02-14T00:48:04.561Z,45.00
2019-02-14T00:49:04.550Z,45.60
2019-02-14T00:50:04.541Z,44.80
2019-02-14T00:51:04.531Z,43.10
2019-02-14T00:52:04.538Z,45.50
2019-02-14T00:53:04.539Z,47.30
2019-02-14T00:54:04.496Z,46.50
2019-02-14T00:55:04.484Z,43.80
2019-02-14T00:56:04.474Z,45.30
2019-02-14T00:57:04.461Z,46.30
2019-02-14T00:58:04.450Z,43.70
2019-02-14T00:59:04.440Z,46.10
2019-02-14T01:00:05.961Z,41.40
2019-02-14T01:01:04.416Z,42.30
2019-02-14T01:02:04.407Z,43.00
2019-02-14T01:03:04.396Z,44.30
2019-02-14T01:04:04.384Z,43.70
2019-02-14T01:05:04.374Z,46.20
2019-02-14T01:06:04.362Z,45.50
2019-02-14T01:07:04.355Z,44.70
2019-02-14T01:08:04.339Z,44.40
2019-02-14T01:09:04.327Z,43.70
2019-02-14T01:10:04.324Z,44.30
2019-02-14T01:11:04.306Z,43.80
2019-02-14T01:12:04.294Z,44.00
2019-02-14T01:13:04.320Z,43.80
2019-02-14T01:14:04.271Z,42.40
2019-02-14T01:15:04.262Z,41.80
2019-02-14T01:16:04.250Z,46.60
2019-02-14T01:17:04.238Z,45.30
2019-02-14T01:18:04.234Z,43.10
2019-02-14T01:19:04.216Z,45.00
2019-02-14T01:20:04.209Z,45.00
2019-02-14T01:21:04.196Z,44.90
2019-02-14T01:22:04.181Z,46.20
2019-02-14T01:23:04.173Z,46.60
2019-02-14T01:24:04.162Z,45.00
2019-02-14T01:25:04.153Z,41.00
2019-02-14T01:26:04.139Z,47.80
2019-02-14T01:27:04.127Z,43.80
2019-02-14T01:28:04.119Z,47.20
2019-02-14T01:29:04.104Z,43.60
2019-02-14T01:30:04.094Z,46.80
2019-02-14T01:31:04.084Z,44.00
2019-02-14T01:32:04.069Z,48.30
2019-02-14T01:33:04.060Z,45.30
2019-02-14T01:34:04.048Z,45.80
2019-02-14T01:35:04.040Z,44.70
2019-02-14T01:36:04.026Z,45.30
2019-02-14T01:37:04.018Z,43.90
2019-02-14T01:38:04.004Z,47.00
2019-02-14T01:39:03.995Z,42.50
2019-02-14T01:40:03.980Z,45.60
2019-02-14T01:41:03.972Z,41.60
2019-02-14T01:42:03.960Z,43.90
2019-02-14T01:43:03.948Z,44.30
2019-02-14T01:44:03.938Z,42.30
2019-02-14T01:45:03.928Z,44.30
2019-02-14T01:46:03.915Z,43.20
2019-02-14T01:47:03.907Z,39.50
2019-02-14T01:48:03.892Z,40.00
2019-02-14T01:49:03.881Z,42.00
2019-02-14T01:50:03.871Z,41.40
2019-02-14T01:51:03.858Z,40.80
2019-02-14T01:52:03.847Z,35.10
2019-02-14T01:53:03.835Z,40.40
2019-02-14T01:54:03.852Z,42.80
2019-02-14T01:55:03.813Z,42.90
2019-02-14T01:56:03.810Z,39.60
2019-02-14T01:57:03.790Z,39.70
2019-02-14T01:58:03.781Z,44.50
2019-02-14T01:59:03.773Z,39.80
2019-02-14T02:00:03.760Z,43.00
2019-02-14T02:01:03.748Z,41.10
2019-02-14T02:02:03.736Z,44.20
2019-02-14T02:03:03.725Z,40.70
2019-02-14T02:04:03.713Z,39.00
2019-02-14T02:05:03.705Z,42.10
2019-02-14T02:06:03.691Z,42.00
2019-02-14T02:07:03.682Z,44.40
2019-02-14T02:08:03.668Z,37.60
2019-02-14T02:09:03.658Z,39.00
2019-02-14T02:10:03.644Z,37.10
2019-02-14T02:11:03.637Z,40.40
2019-02-14T02:12:03.625Z,39.10
2019-02-14T02:13:03.616Z,38.50
2019-02-14T02:14:03.599Z,37.00
2019-02-14T02:15:03.595Z,39.20
2019-02-14T02:16:03.582Z,39.20
2019-02-14T02:17:03.574Z,38.10
2019-02-14T02:18:03.558Z,38.70
2019-02-14T02:19:03.601Z,36.50
2019-02-14T02:20:03.534Z,37.70
2019-02-14T02:21:03.525Z,38.00
2019-02-14T02:22:03.517Z,36.30
2019-02-14T02:23:03.503Z,36.90
2019-02-14T02:24:03.490Z,35.70
2019-02-14T02:25:03.477Z,35.70
2019-02-14T02:26:03.467Z,38.10
2019-02-14T02:27:03.455Z,35.70
2019-02-14T02:28:03.450Z,37.90
2019-02-14T02:29:03.433Z,34.10
2019-02-14T02:30:03.426Z,39.00
2019-02-14T02:31:03.433Z,38.60
2019-02-14T02:32:03.403Z,36.70
2019-02-14T02:33:03.421Z,34.40
2019-02-14T02:34:03.376Z,37.40
2019-02-14T02:35:03.366Z,35.80
2019-02-14T02:36:03.357Z,35.70
2019-02-14T02:37:03.343Z,36.80
2019-02-14T02:38:03.334Z,36.30
2019-02-14T02:39:03.324Z,37.10
2019-02-14T02:40:03.312Z,35.20
2019-02-14T02:41:03.302Z,35.10
2019-02-14T02:42:03.294Z,30.50
2019-02-14T02:43:03.282Z,33.00
2019-02-14T02:44:03.266Z,34.60
2019-02-14T02:45:03.255Z,37.10
2019-02-14T02:46:03.245Z,32.40
2019-02-14T02:47:03.242Z,34.60
2019-02-14T02:48:03.222Z,32.80
2019-02-14T02:49:03.221Z,37.50
2019-02-14T02:50:03.204Z,33.20
2019-02-14T02:51:03.191Z,33.60
2019-02-14T02:52:03.175Z,35.90
2019-02-14T02:53:03.164Z,32.40
2019-02-14T02:54:03.154Z,32.90
2019-02-14T02:55:03.146Z,35.20
2019-02-14T02:56:03.132Z,32.90
2019-02-14T02:57:03.121Z,33.00
2019-02-14T02:58:03.109Z,33.50
2019-02-14T02:59:03.099Z,35.10
2019-02-14T03:00:03.089Z,33.70
2019-02-14T03:01:03.080Z,33.30
2019-02-14T03:02:03.065Z,30.60
2019-02-14T03:03:03.053Z,33.20
2019-02-14T03:04:03.042Z,33.80
2019-02-14T03:05:03.032Z,33.60
2019-02-14T03:06:10.295Z,35.90
2019-02-14T03:07:04.033Z,33.60
2019-02-14T03:08:03.000Z,34.50
2019-02-14T03:09:02.989Z,31.10
2019-02-14T03:10:02.975Z,35.40
2019-02-14T03:11:02.963Z,33.00
2019-02-14T03:12:02.955Z,33.80
2019-02-14T03:13:02.945Z,29.60
2019-02-14T03:14:02.936Z,38.60
2019-02-14T03:15:02.920Z,33.10
2019-02-14T03:16:02.908Z,31.70
2019-02-14T03:17:02.899Z,34.60
2019-02-14T03:18:02.886Z,31.70
2019-02-14T03:19:02.874Z,32.00
2019-02-14T03:20:02.864Z,36.60
2019-02-14T03:21:02.853Z,32.00
2019-02-14T03:22:02.842Z,33.00
2019-02-14T03:23:02.829Z,33.00
2019-02-14T03:24:02.819Z,31.80
2019-02-14T03:25:02.808Z,34.10
2019-02-14T03:26:02.808Z,32.10
2019-02-14T03:27:02.784Z,36.20
2019-02-14T03:28:02.774Z,33.90
2019-02-14T03:29:02.764Z,30.90
2019-02-14T03:30:02.753Z,33.00
2019-02-14T03:31:02.751Z,32.50
2019-02-14T03:32:02.743Z,32.80
2019-02-14T03:33:02.719Z,33.00
2019-02-14T03:34:02.707Z,29.90
2019-02-14T03:35:02.694Z,33.60
2019-02-14T03:36:02.685Z,30.30
2019-02-14T03:37:02.678Z,31.10
2019-02-14T03:38:02.669Z,29.70
2019-02-14T03:39:02.669Z,28.50
2019-02-14T03:40:02.640Z,28.40
2019-02-14T03:41:02.631Z,31.40
2019-02-14T03:42:02.617Z,29.50
2019-02-14T03:43:02.606Z,28.90
2019-02-14T03:44:02.597Z,31.00
2019-02-14T03:45:02.584Z,31.90
2019-02-14T03:46:02.572Z,28.40
2019-02-14T03:47:02.562Z,27.10
2019-02-14T03:48:02.550Z,27.80
2019-02-14T03:49:02.560Z,29.80
2019-02-14T03:50:02.529Z,27.60
2019-02-14T03:51:02.577Z,32.50
2019-02-14T03:52:02.509Z,25.30
2019-02-14T03:53:02.495Z,32.00
2019-02-14T03:54:02.483Z,26.90
2019-02-14T03:55:02.471Z,29.20
2019-02-14T03:56:02.464Z,27.70
2019-02-14T03:57:02.457Z,29.80
2019-02-14T03:58:02.439Z,27.10
2019-02-14T03:59:02.430Z,30.20
2019-02-14T04:00:02.419Z,28.00
2019-02-14T04:01:02.404Z,31.30
2019-02-14T04:02:02.394Z,27.70
2019-02-14T04:03:02.383Z,27.90
2019-02-14T04:04:02.371Z,30.20
2019-02-14T04:05:02.363Z,28.00
2019-02-14T04:06:02.365Z,28.40
2019-02-14T04:07:02.337Z,26.20
2019-02-14T04:08:02.326Z,30.10
2019-02-14T04:09:02.362Z,26.50
2019-02-14T04:10:02.305Z,25.50
2019-02-14T04:11:02.295Z,27.20
2019-02-14T04:12:02.282Z,27.20
2019-02-14T04:13:02.271Z,27.50
2019-02-14T04:14:02.258Z,24.90
2019-02-14T04:15:02.249Z,24.50
2019-02-14T04:16:02.239Z,24.30
2019-02-14T04:17:02.227Z,26.70
2019-02-14T04:18:02.215Z,27.40
2019-02-14T04:19:02.205Z,25.40
2019-02-14T04:20:20.332Z,26.90
2019-02-14T04:21:44.745Z,23.80
2019-02-14T04:22:44.728Z,24.70
2019-02-14T04:24:15.194Z,26.50
2019-02-14T04:25:15.213Z,26.00
2019-02-14T04:26:56.727Z,21.30
2019-02-14T04:27:56.714Z,26.30
2019-02-14T04:29:38.256Z,25.80
2019-02-14T04:30:38.240Z,24.50
2019-02-14T04:32:19.779Z,24.90
2019-02-14T04:33:19.765Z,26.80
2019-02-14T04:35:01.315Z,21.10
2019-02-14T04:36:01.302Z,25.50
2019-02-14T04:37:42.840Z,22.60
2019-02-14T04:38:42.826Z,27.50
2019-02-14T04:40:24.367Z,22.40
2019-02-14T04:41:24.355Z,25.50
2019-02-14T04:43:05.898Z,24.40
2019-02-14T04:44:05.888Z,24.60
2019-02-14T04:45:36.549Z,18.90
2019-02-14T04:46:36.537Z,25.20
2019-02-14T04:48:18.104Z,25.50
2019-02-14T04:49:18.090Z,28.50
2019-02-14T04:50:59.635Z,23.30
2019-02-14T04:51:59.622Z,25.60
2019-02-14T04:53:32.560Z,27.40
2019-02-14T04:55:36.229Z,23.80
2019-02-14T04:56:34.534Z,27.50
2019-02-14T04:58:17.954Z,26.70
2019-02-14T04:59:16.936Z,26.40
2019-02-14T05:00:59.543Z,24.20
2019-02-14T05:01:59.551Z,24.90
2019-02-14T05:03:32.439Z,21.60
2019-02-14T05:04:30.900Z,23.20
2019-02-14T05:06:13.607Z,27.90
2019-02-14T05:07:13.512Z,24.40
2019-02-14T05:08:13.523Z,28.10
2019-02-14T05:09:13.403Z,23.20
2019-02-14T05:10:14.304Z,25.30
2019-02-14T05:11:14.339Z,26.30
2019-02-14T05:12:14.368Z,26.60
2019-02-14T05:13:14.305Z,21.50
2019-02-14T05:14:14.308Z,25.60
2019-02-14T05:15:14.364Z,27.60
2019-02-14T05:16:15.303Z,25.90
2019-02-14T05:17:15.397Z,26.90
2019-02-14T05:18:14.805Z,26.20
2019-02-14T05:19:14.805Z,25.00
2019-02-14T05:20:15.962Z,27.10
2019-02-14T05:21:14.809Z,26.90
2019-02-14T05:22:14.308Z,23.90
2019-02-14T05:23:14.805Z,27.10
2019-02-14T05:24:14.805Z,22.60
2019-02-14T05:25:13.819Z,23.50
2019-02-14T05:26:14.306Z,26.80
2019-02-14T05:27:13.806Z,21.50
2019-02-14T05:28:13.839Z,24.40
2019-02-14T05:29:13.806Z,25.10
2019-02-14T05:30:13.807Z,23.70
2019-02-14T05:31:13.271Z,27.50
2019-02-14T05:32:13.181Z,25.50
2019-02-14T05:33:13.906Z,23.70
2019-02-14T05:34:13.880Z,27.40
2019-02-14T05:35:14.319Z,25.70
2019-02-14T05:36:15.306Z,23.50
2019-02-14T05:37:13.808Z,23.90
2019-02-14T05:38:13.810Z,27.00
2019-02-14T05:39:14.806Z,27.80
2019-02-14T05:40:14.833Z,30.30
2019-02-14T05:41:13.162Z,25.40
2019-02-14T05:42:13.811Z,26.00
2019-02-14T05:43:14.307Z,25.20
2019-02-14T05:44:14.309Z,26.10
2019-02-14T05:45:13.811Z,26.10
2019-02-14T05:46:13.810Z,26.00
2019-02-14T05:47:13.811Z,29.10
2019-02-14T05:48:14.013Z,23.70
2019-02-14T05:49:13.060Z,23.70
2019-02-14T05:50:13.809Z,25.70
2019-02-14T05:51:13.830Z,28.70
2019-02-14T05:52:13.837Z,24.50
2019-02-14T05:53:13.810Z,24.70
2019-02-14T05:54:12.986Z,29.80
2019-02-14T05:55:12.876Z,25.60
2019-02-14T05:56:14.310Z,26.40
2019-02-14T05:57:12.952Z,26.80
2019-02-14T05:58:14.309Z,21.50
2019-02-14T05:59:14.809Z,24.90
2019-02-14T06:00:14.310Z,25.70
2019-02-14T06:01:14.813Z,27.70
2019-02-14T06:02:13.811Z,26.40
2019-02-14T06:03:12.879Z,27.90
2019-02-14T06:04:12.900Z,25.30
2019-02-14T06:05:13.814Z,24.80
2019-02-14T06:06:13.819Z,25.00
2019-02-14T06:07:13.313Z,24.90
2019-02-14T06:08:15.311Z,26.20
2019-02-14T06:09:13.811Z,24.00
2019-02-14T06:10:13.314Z,24.50
2019-02-14T06:11:13.812Z,24.50
2019-02-14T06:12:13.315Z,24.90
2019-02-14T06:13:13.814Z,23.90
2019-02-14T06:14:13.813Z,24.00
2019-02-14T06:15:13.815Z,24.40
2019-02-14T06:16:13.376Z,24.00
2019-02-14T06:17:12.686Z,24.30
2019-02-14T06:18:13.818Z,25.60
2019-02-14T06:19:13.813Z,24.80
2019-02-14T06:20:13.316Z,27.10
2019-02-14T06:21:13.314Z,24.20
2019-02-14T06:22:13.826Z,24.20
2019-02-14T06:23:12.670Z,25.50
2019-02-14T06:24:13.843Z,25.30
2019-02-14T06:25:13.817Z,24.20
2019-02-14T06:26:12.692Z,25.80
2019-02-14T06:27:13.339Z,26.60
2019-02-14T06:28:12.508Z,24.20
2019-02-14T06:29:13.814Z,23.70
2019-02-14T06:30:13.317Z,25.70
2019-02-14T06:31:14.818Z,26.70
2019-02-14T06:32:13.386Z,24.00
2019-02-14T06:33:13.316Z,22.60
2019-02-14T06:34:13.816Z,24.90
2019-02-14T06:35:12.585Z,24.00
2019-02-14T06:36:13.337Z,25.50
2019-02-14T06:37:13.820Z,21.00
2019-02-14T06:38:15.839Z,26.60
2019-02-14T06:39:13.815Z,24.90
2019-02-14T06:40:14.318Z,25.60
2019-02-14T06:41:13.819Z,24.80
2019-02-14T06:42:12.388Z,24.70
2019-02-14T06:43:13.816Z,22.80
2019-02-14T06:44:12.397Z,22.70
2019-02-14T06:45:13.320Z,24.50
2019-02-14T06:46:14.316Z,25.30
2019-02-14T06:47:13.385Z,23.70
2019-02-14T06:48:13.834Z,26.60
2019-02-14T06:49:13.320Z,25.80
2019-02-14T06:50:12.824Z,24.90
2019-02-14T06:51:12.394Z,23.60
2019-02-14T06:52:12.817Z,25.70
2019-02-14T06:53:12.231Z,24.90
2019-02-14T06:54:12.819Z,26.70
2019-02-14T06:55:12.827Z,24.70
2019-02-14T06:56:12.818Z,23.80
2019-02-14T06:57:17.817Z,25.30
2019-02-14T06:58:12.928Z,26.20
2019-02-14T06:59:14.819Z,27.80
2019-02-14T07:00:14.320Z,26.60
2019-02-14T07:01:12.821Z,25.70
2019-02-14T07:02:13.321Z,27.00
2019-02-14T07:03:12.821Z,27.40
2019-02-14T07:04:13.319Z,26.60
2019-02-14T07:05:13.857Z,25.00
2019-02-14T07:06:12.822Z,27.20
2019-02-14T07:07:18.335Z,26.60
2019-02-14T07:08:14.819Z,25.70
2019-02-14T07:09:12.820Z,26.60
2019-02-14T07:10:14.326Z,27.60
2019-02-14T07:11:12.067Z,28.50
2019-02-14T07:12:12.064Z,26.80
2019-02-14T07:13:12.052Z,28.40
2019-02-14T07:14:13.002Z,27.50
2019-02-14T07:15:16.321Z,26.00
2019-02-14T07:16:13.322Z,33.90
2019-02-14T07:17:14.321Z,39.10
2019-02-14T07:18:12.006Z,43.80
2019-02-14T07:19:12.822Z,38.30
2019-02-14T07:20:13.034Z,32.80
2019-02-14T07:21:13.323Z,29.90
2019-02-14T07:22:14.322Z,27.20
2019-02-14T07:23:16.321Z,26.60
2019-02-14T07:24:12.822Z,30.30
2019-02-14T07:25:13.331Z,30.70
2019-02-14T07:26:12.823Z,27.20
2019-02-14T07:27:13.322Z,27.40
2019-02-14T07:28:12.849Z,25.80
2019-02-14T07:29:12.907Z,26.60
2019-02-14T07:30:13.824Z,26.70
2019-02-14T07:31:13.824Z,25.40
2019-02-14T07:32:13.326Z,27.10
2019-02-14T07:33:13.340Z,26.20
2019-02-14T07:34:12.327Z,23.30
2019-02-14T07:35:19.368Z,27.20
2019-02-14T07:36:12.824Z,27.60
2019-02-14T07:37:12.824Z,27.00
2019-02-14T07:38:12.323Z,26.70
2019-02-14T07:39:12.365Z,26.50
2019-02-14T07:40:12.335Z,26.40
2019-02-14T07:41:13.324Z,27.60
2019-02-14T07:42:12.325Z,26.60
2019-02-14T07:43:12.344Z,25.90
2019-02-14T07:44:12.324Z,25.00
2019-02-14T07:45:13.842Z,25.50
2019-02-14T07:46:12.401Z,28.60
2019-02-14T07:47:12.826Z,32.00
2019-02-14T07:48:12.327Z,25.10
2019-02-14T07:49:12.334Z,27.00
2019-02-14T07:50:12.827Z,27.90
2019-02-14T07:51:13.327Z,27.70
2019-02-14T07:52:12.330Z,25.90
2019-02-14T07:53:13.326Z,28.10
2019-02-14T07:54:12.327Z,25.10
2019-02-14T07:55:12.495Z,26.10
2019-02-14T07:56:11.650Z,25.40
2019-02-14T07:57:12.330Z,24.10
2019-02-14T07:58:12.339Z,24.50
2019-02-14T07:59:12.835Z,24.30
2019-02-14T08:00:12.351Z,27.00
2019-02-14T08:01:12.828Z,23.00
2019-02-14T08:02:12.330Z,29.10
2019-02-14T08:03:12.827Z,28.90
2019-02-14T08:04:12.834Z,29.10
2019-02-14T08:05:11.495Z,25.10
2019-02-14T08:06:12.385Z,28.80
2019-02-14T08:07:12.337Z,25.70
2019-02-14T08:08:12.333Z,25.10
2019-02-14T08:09:12.831Z,25.80
2019-02-14T08:10:12.332Z,25.20
2019-02-14T08:11:12.329Z,27.30
2019-02-14T08:12:13.829Z,28.30
2019-02-14T08:13:12.831Z,27.00
2019-02-14T08:14:11.360Z,28.00
2019-02-14T08:15:12.352Z,27.40
2019-02-14T08:16:13.829Z,34.20
2019-02-14T08:17:13.340Z,29.70
2019-02-14T08:18:12.332Z,27.80
2019-02-14T08:19:11.835Z,29.00
2019-02-14T08:20:11.848Z,25.90
2019-02-14T08:21:11.877Z,26.70
2019-02-14T08:22:11.831Z,26.80
2019-02-14T08:23:11.280Z,26.20
2019-02-14T08:24:11.832Z,29.40
2019-02-14T08:25:13.333Z,27.50
2019-02-14T08:26:11.329Z,24.90
2019-02-14T08:27:13.831Z,24.00
2019-02-14T08:28:12.331Z,26.10
2019-02-14T08:29:11.223Z,28.20
2019-02-14T08:30:12.835Z,26.10
2019-02-14T08:31:12.331Z,25.70
2019-02-14T08:32:11.893Z,24.50
2019-02-14T08:33:11.833Z,23.40
2019-02-14T08:34:12.333Z,25.50
2019-02-14T08:35:11.158Z,26.10
2019-02-14T08:36:11.833Z,26.90
2019-02-14T08:37:11.206Z,25.00
2019-02-14T08:38:11.147Z,24.80
2019-02-14T08:39:11.841Z,26.20
2019-02-14T08:40:12.335Z,23.90
2019-02-14T08:41:11.841Z,26.00
2019-02-14T08:42:11.089Z,27.70
2019-02-14T08:43:11.834Z,25.70
2019-02-14T08:44:11.090Z,26.50
2019-02-14T08:45:11.836Z,27.00
2019-02-14T08:46:11.030Z,27.70
2019-02-14T08:47:11.837Z,25.50
2019-02-14T08:48:11.838Z,24.80
2019-02-14T08:49:12.374Z,25.20
2019-02-14T08:50:10.944Z,26.60
2019-02-14T08:51:11.842Z,23.50
2019-02-14T08:52:11.836Z,27.50
2019-02-14T08:53:11.485Z,27.80
2019-02-14T08:54:11.913Z,29.00
2019-02-14T08:55:11.838Z,28.30
2019-02-14T08:56:11.508Z,27.10
2019-02-14T08:57:12.837Z,25.90
2019-02-14T08:58:12.341Z,28.70
2019-02-14T08:59:12.362Z,24.90
2019-02-14T09:00:11.838Z,23.90
2019-02-14T09:01:10.957Z,27.10
2019-02-14T09:02:10.832Z,24.60
2019-02-14T09:03:10.788Z,24.80
2019-02-14T09:04:10.816Z,25.60
2019-02-14T09:05:11.352Z,25.20
2019-02-14T09:06:11.340Z,22.70
2019-02-14T09:07:12.842Z,25.20
2019-02-14T09:08:10.802Z,27.60
2019-02-14T09:09:10.868Z,23.70
2019-02-14T09:10:10.811Z,27.40
2019-02-14T09:11:11.841Z,26.30
2019-02-14T09:12:10.888Z,24.20
2019-02-14T09:13:17.304Z,23.80
2019-02-14T09:14:12.339Z,29.80
2019-02-14T09:15:12.869Z,23.10
2019-02-14T09:16:13.340Z,23.90
2019-02-14T09:17:11.846Z,23.00
2019-02-14T09:18:11.841Z,24.70
2019-02-14T09:19:11.342Z,25.70
2019-02-14T09:20:12.342Z,22.70
2019-02-14T09:21:12.341Z,23.40
2019-02-14T09:22:12.350Z,22.40
2019-02-14T09:23:10.671Z,27.30
2019-02-14T09:24:11.840Z,25.40
2019-02-14T09:25:11.842Z,24.90
2019-02-14T09:26:12.342Z,25.00
2019-02-14T09:27:11.348Z,26.60
2019-02-14T09:28:11.842Z,25.70
2019-02-14T09:29:14.333Z,23.70
2019-02-14T09:30:11.437Z,22.40
2019-02-14T09:31:12.362Z,21.80
2019-02-14T09:32:11.343Z,23.40
2019-02-14T09:33:11.343Z,25.20
2019-02-14T09:34:12.346Z,21.10
2019-02-14T09:35:10.559Z,20.70
2019-02-14T09:36:11.844Z,19.70
2019-02-14T09:37:11.347Z,22.00
2019-02-14T09:38:10.570Z,23.80
2019-02-14T09:39:12.843Z,24.80
2019-02-14T09:40:11.357Z,23.10
2019-02-14T09:41:10.844Z,21.30
2019-02-14T09:42:11.426Z,23.70
2019-02-14T09:43:11.854Z,24.50
2019-02-14T09:44:11.434Z,22.50
2019-02-14T09:45:12.350Z,21.80
2019-02-14T09:46:10.333Z,23.10
2019-02-14T09:47:10.529Z,22.10
2019-02-14T09:48:13.010Z,23.00
2019-02-14T09:49:10.457Z,22.80
2019-02-14T09:50:11.346Z,24.30
2019-02-14T09:51:10.885Z,25.30
2019-02-14T09:52:10.846Z,21.90
2019-02-14T09:53:11.907Z,25.50
2019-02-14T09:54:11.014Z,23.10
2019-02-14T09:55:10.872Z,22.90
2019-02-14T09:56:11.855Z,22.20
2019-02-14T09:57:11.346Z,23.00
2019-02-14T09:58:10.851Z,23.00
2019-02-14T09:59:10.327Z,22.20
2019-02-14T10:00:10.854Z,22.10
2019-02-14T10:01:10.269Z,22.20
2019-02-14T10:02:10.262Z,24.10
2019-02-14T10:03:11.362Z,22.70
2019-02-14T10:04:10.176Z,22.00
2019-02-14T10:05:10.860Z,21.60
2019-02-14T10:06:10.855Z,21.10
2019-02-14T10:07:10.263Z,24.80
2019-02-14T10:08:12.723Z,22.90
2019-02-14T10:09:10.853Z,25.20
2019-02-14T10:10:10.868Z,23.20
2019-02-14T10:11:10.949Z,21.50
2019-02-14T10:12:11.037Z,19.60
2019-02-14T10:13:11.352Z,18.90
2019-02-14T10:14:11.351Z,24.50
2019-02-14T10:15:11.356Z,21.80
2019-02-14T10:16:10.851Z,21.40
2019-02-14T10:17:10.855Z,19.70
2019-02-14T10:18:10.853Z,21.70
2019-02-14T10:19:10.124Z,21.70
2019-02-14T10:20:10.041Z,21.80
2019-02-14T10:21:11.855Z,18.80
2019-02-14T10:22:10.907Z,17.50
2019-02-14T10:23:11.352Z,19.60
2019-02-14T10:24:10.858Z,18.40
2019-02-14T10:25:10.917Z,21.90
2019-02-14T10:26:10.015Z,20.60
2019-02-14T10:27:10.353Z,22.60
2019-02-14T10:28:10.855Z,19.00
2019-02-14T10:29:10.134Z,18.00
2019-02-14T10:30:10.658Z,18.10
2019-02-14T10:31:09.910Z,19.10
2019-02-14T10:32:11.389Z,21.00
2019-02-14T10:33:09.717Z,16.80
2019-02-14T10:34:09.706Z,18.50
2019-02-14T10:35:09.695Z,16.70
2019-02-14T10:36:09.684Z,17.10
2019-02-14T10:37:09.717Z,16.40
2019-02-14T10:38:09.661Z,16.50
2019-02-14T10:39:09.653Z,17.90
2019-02-14T10:40:09.640Z,16.40
2019-02-14T10:41:09.632Z,16.80
2019-02-14T10:42:09.621Z,17.20
2019-02-14T10:43:09.606Z,17.10
2019-02-14T10:44:09.594Z,16.50
2019-02-14T10:45:09.586Z,16.90
2019-02-14T10:46:09.577Z,18.00
2019-02-14T10:47:09.560Z,19.10
2019-02-14T10:48:09.556Z,17.60
2019-02-14T10:49:09.543Z,17.40
2019-02-14T10:50:09.528Z,16.40
2019-02-14T10:51:09.521Z,20.30
2019-02-14T10:52:09.507Z,19.70
2019-02-14T10:53:09.496Z,16.40
2019-02-14T10:54:09.485Z,16.60
2019-02-14T10:55:09.471Z,18.00
2019-02-14T10:56:09.460Z,18.60
2019-02-14T10:57:09.448Z,19.50
2019-02-14T10:58:09.472Z,18.20
2019-02-14T10:59:09.430Z,22.60
2019-02-14T11:00:09.416Z,18.70
2019-02-14T11:01:09.403Z,17.80
2019-02-14T11:02:09.392Z,19.00
2019-02-14T11:03:09.384Z,18.20
2019-02-14T11:04:09.374Z,17.80
2019-02-14T11:05:09.363Z,18.10
2019-02-14T11:06:09.348Z,19.30
2019-02-14T11:07:09.338Z,18.90
2019-02-14T11:08:09.328Z,16.90
2019-02-14T11:09:09.317Z,18.60
2019-02-14T11:10:09.313Z,19.40
2019-02-14T11:11:09.296Z,18.30
2019-02-14T11:12:09.281Z,17.30
2019-02-14T11:13:09.270Z,17.90
2019-02-14T11:14:09.262Z,17.40
2019-02-14T11:15:09.333Z,15.90
2019-02-14T11:16:09.873Z,17.00
2019-02-14T11:17:09.222Z,20.40
2019-02-14T11:18:09.212Z,21.00
2019-02-14T11:19:09.203Z,17.60
2019-02-14T11:20:09.192Z,22.40
2019-02-14T11:21:09.178Z,19.30
2019-02-14T11:22:09.168Z,18.40
2019-02-14T11:23:09.163Z,16.40
2019-02-14T11:24:09.144Z,16.50
2019-02-14T11:25:09.138Z,15.30
2019-02-14T11:26:09.122Z,16.40
2019-02-14T11:27:09.110Z,16.40
2019-02-14T11:28:09.100Z,17.30
2019-02-14T11:29:09.093Z,15.80
2019-02-14T11:30:09.077Z,14.90
2019-02-14T11:31:09.067Z,17.50
2019-02-14T11:32:09.063Z,17.30
2019-02-14T11:33:09.044Z,13.90
2019-02-14T11:34:09.032Z,17.30
2019-02-14T11:35:09.021Z,13.80
2019-02-14T11:36:09.012Z,16.30
2019-02-14T11:37:08.996Z,17.70
2019-02-14T11:38:08.987Z,15.70
2019-02-14T11:39:08.977Z,14.30
2019-02-14T11:40:08.967Z,15.70
2019-02-14T11:41:08.952Z,17.40
2019-02-14T11:42:08.944Z,15.50
2019-02-14T11:43:08.933Z,14.70
2019-02-14T11:44:08.922Z,13.30
2019-02-14T11:45:08.907Z,15.60
2019-02-14T11:46:08.895Z,16.90
2019-02-14T11:47:08.892Z,17.70
2019-02-14T11:48:08.874Z,14.80
2019-02-14T11:49:08.864Z,15.40
2019-02-14T11:50:08.848Z,17.40
2019-02-14T11:51:08.840Z,19.80
2019-02-14T11:52:08.829Z,19.00
2019-02-14T11:53:14.074Z,17.10
2019-02-14T11:54:09.804Z,17.10
2019-02-14T11:55:08.806Z,18.50
2019-02-14T11:56:10.033Z,15.40
2019-02-14T11:57:08.778Z,16.90
2019-02-14T11:58:08.758Z,17.70
2019-02-14T11:59:08.751Z,17.80
2019-02-14T12:00:08.751Z,18.60
2019-02-14T12:01:08.728Z,17.80
2019-02-14T12:02:08.717Z,18.50
2019-02-14T12:03:08.706Z,17.30
2019-02-14T12:04:08.691Z,18.50
2019-02-14T12:05:08.680Z,17.10
2019-02-14T12:06:08.671Z,19.80
2019-02-14T12:07:08.664Z,17.60
2019-02-14T12:08:09.585Z,20.90
2019-02-14T12:09:08.635Z,18.00
2019-02-14T12:10:13.481Z,18.60
2019-02-14T12:11:09.614Z,18.70
2019-02-14T12:12:08.604Z,18.80
2019-02-14T12:13:08.591Z,20.40
2019-02-14T12:14:08.581Z,18.40
2019-02-14T12:15:08.590Z,18.70
2019-02-14T12:16:08.558Z,18.70
2019-02-14T12:17:08.548Z,19.30
2019-02-14T12:18:08.539Z,18.70
2019-02-14T12:19:08.525Z,18.80
2019-02-14T12:20:12.410Z,20.70
2019-02-14T12:21:08.500Z,22.20
2019-02-14T12:22:08.491Z,19.70
2019-02-14T12:23:08.478Z,21.80
2019-02-14T12:24:08.470Z,22.30
2019-02-14T12:25:08.597Z,20.70
2019-02-14T12:26:08.443Z,18.10
2019-02-14T12:27:08.435Z,20.20
2019-02-14T12:28:08.427Z,17.50
2019-02-14T12:29:08.409Z,19.30
2019-02-14T12:30:08.423Z,19.30
2019-02-14T12:31:08.402Z,18.20
2019-02-14T12:32:08.377Z,19.90
2019-02-14T12:33:08.367Z,18.00
2019-02-14T12:34:08.354Z,21.40
2019-02-14T12:35:08.344Z,21.20
2019-02-14T12:36:08.334Z,21.50
2019-02-14T12:37:08.342Z,20.60
2019-02-14T12:38:08.309Z,20.90
2019-02-14T12:39:11.026Z,18.00
2019-02-14T12:40:08.286Z,18.70
2019-02-14T12:41:08.288Z,18.40
2019-02-14T12:42:08.265Z,21.70
2019-02-14T12:43:08.257Z,20.70
2019-02-14T12:44:08.245Z,20.60
2019-02-14T12:45:08.235Z,22.20
2019-02-14T12:46:08.223Z,22.00
2019-02-14T12:47:08.210Z,19.30
2019-02-14T12:48:08.253Z,19.50
2019-02-14T12:49:08.186Z,20.20
2019-02-14T12:50:08.175Z,18.30
2019-02-14T12:51:08.165Z,21.50
2019-02-14T12:52:08.154Z,19.20
2019-02-14T12:53:08.143Z,19.50
2019-02-14T12:54:08.131Z,20.00
2019-02-14T12:55:08.120Z,20.40
2019-02-14T12:56:08.111Z,19.00
2019-02-14T12:57:08.099Z,19.70
2019-02-14T12:58:08.088Z,17.10
2019-02-14T12:59:08.077Z,16.70
2019-02-14T13:00:08.065Z,19.00
2019-02-14T13:01:08.053Z,19.90
2019-02-14T13:02:08.043Z,19.80
2019-02-14T13:03:08.034Z,24.60
2019-02-14T13:04:08.021Z,19.10